Time;durP1;ratioP1;P1;durP2;ratioP2;P2;SDS_P1;SDS_P2;PMS_P1;PMS_P2;Temp;Humidity;BMP_temperature;BMP_pressure;BME280_temperature;BME280_humidity;BME280_pressure;Samples;Min_cycle;Max_cycle;Signal;HPM_P1;HPM_P2
2021/11/26 00:01:49;;;;;;;4.38;2.20;;;;;;;3.14;67.06;100065.06;6216470;23;20014;-77
2021/11/26 00:04:15;;;;;;;7.15;2.17;;;;;;;3.22;66.83;100070.16;6189268;23;20009;-78
2021/11/26 00:06:43;;;;;;;4.82;2.45;;;;;;;3.20;67.19;100056.03;6216659;23;20004;-77
2021/11/26 00:09:14;;;;;;;4.72;2.35;;;;;;;3.18;67.17;100047.31;6139366;23;20486;-77
2021/11/26 00:11:40;;;;;;;14.57;2.80;;;;;;;3.26;67.06;100049.72;6214942;23;20005;-78
2021/11/26 00:14:27;;;;;;;5.65;3.05;;;;;;;3.22;66.82;100013.41;6217369;23;20336;-78
2021/11/26 00:16:57;;;;;;;4.43;2.90;;;;;;;3.36;67.05;100026.72;6192805;23;20005;-78
2021/11/26 00:19:26;;;;;;;7.95;1.90;;;;;;;3.40;66.45;100022.53;6196161;23;20021;-79
2021/11/26 00:21:54;;;;;;;7.07;2.75;;;;;;;3.44;66.89;100023.72;6217323;23;20001;-77
2021/11/26 00:24:20;;;;;;;6.40;2.75;;;;;;;3.40;66.48;100009.00;6217591;23;20067;-78
2021/11/26 00:26:47;;;;;;;5.35;2.85;;;;;;;3.42;66.75;100002.31;6213509;23;20449;-80
2021/11/26 00:29:13;;;;;;;10.20;2.80;;;;;;;3.40;67.24;99992.78;6210656;23;20027;-79
2021/11/26 00:31:39;;;;;;;8.90;2.60;;;;;;;3.40;67.21;99990.09;6219400;23;20384;-79
2021/11/26 00:34:07;;;;;;;9.65;2.92;;;;;;;3.28;67.19;99961.13;6217405;23;20005;-81
2021/11/26 00:36:33;;;;;;;9.20;2.80;;;;;;;3.32;67.17;99962.31;6217452;23;20008;-78
2021/11/26 00:38:59;;;;;;;4.28;2.25;;;;;;;3.30;66.96;99956.34;6217573;23;20296;-78
2021/11/26 00:41:25;;;;;;;4.97;2.88;;;;;;;3.38;67.37;99970.59;6187847;23;20017;-77
2021/11/26 00:43:51;;;;;;;3.53;2.25;;;;;;;3.36;67.35;99967.25;6217520;23;20027;-78
2021/11/26 00:46:17;;;;;;;6.63;2.67;;;;;;;3.31;67.79;99960.69;6215813;23;20005;-78
2021/11/26 00:48:42;;;;;;;3.65;2.72;;;;;;;3.36;67.50;99962.72;6234697;23;20011;-80
2021/11/26 00:51:08;;;;;;;5.70;2.55;;;;;;;3.36;67.60;99957.31;6219519;23;20465;-79
2021/11/26 00:53:34;;;;;;;10.48;2.22;;;;;;;3.38;67.72;99949.78;6216684;23;20004;-78
2021/11/26 00:55:59;;;;;;;7.40;2.30;;;;;;;3.40;67.32;99941.44;6217590;23;20001;-75
2021/11/26 00:58:27;;;;;;;2.67;2.05;;;;;;;3.44;67.24;99948.84;6189541;23;20087;-74
2021/11/26 01:00:53;;;;;;;3.72;2.05;;;;;;;3.47;67.52;99942.16;6216299;23;20031;-73
2021/11/26 01:03:18;;;;;;;2.08;1.73;;;;;;;3.47;67.00;99931.34;6187635;23;20008;-75
2021/11/26 01:05:44;;;;;;;4.60;2.38;;;;;;;3.46;67.13;99919.72;6164474;23;20404;-74
2021/11/26 01:08:09;;;;;;;4.38;2.47;;;;;;;3.48;67.32;99909.50;6189168;23;20036;-74
2021/11/26 01:10:35;;;;;;;4.57;2.83;;;;;;;3.55;67.18;99909.41;6188417;23;20051;-75
2021/11/26 01:13:02;;;;;;;5.03;1.80;;;;;;;3.59;67.20;99907.88;6164411;23;20427;-74
2021/11/26 01:15:31;;;;;;;1.55;1.45;;;;;;;3.62;67.00;99906.56;6189383;23;20018;-74
2021/11/26 01:17:57;;;;;;;1.98;1.77;;;;;;;3.56;67.47;99889.41;6215444;23;20023;-76
2021/11/26 01:20:26;;;;;;;2.00;1.77;;;;;;;3.59;67.28;99877.28;6189246;23;20015;-74
2021/11/26 01:22:52;;;;;;;2.67;1.48;;;;;;;3.64;66.91;99883.66;6213157;23;20017;-74
2021/11/26 01:25:19;;;;;;;5.05;1.80;;;;;;;3.62;67.07;99877.66;6211281;23;20055;-75
2021/11/26 01:27:47;;;;;;;3.85;1.98;;;;;;;3.58;67.00;99865.66;6184435;23;20044;-77
2021/11/26 01:32:55;;;;;;;2.40;1.80;;;;;;;3.53;66.73;99843.91;6224459;23;20301;-75
2021/11/26 01:35:22;;;;;;;3.17;1.98;;;;;;;3.56;66.99;99838.03;6187720;23;20320;-75
2021/11/26 01:37:48;;;;;;;2.00;1.55;;;;;;;3.52;67.11;99836.03;6189169;23;20319;-76
2021/11/26 01:40:14;;;;;;;1.88;1.73;;;;;;;3.46;67.26;99832.38;6216354;23;20000;-75
2021/11/26 01:42:40;;;;;;;5.80;2.20;;;;;;;3.43;66.93;99840.94;6225491;23;20011;-74
2021/11/26 01:45:06;;;;;;;5.10;1.80;;;;;;;3.35;67.76;99819.69;6232113;23;19997;-75
2021/11/26 01:47:31;;;;;;;5.13;1.90;;;;;;;3.44;67.92;99818.28;6203058;23;20331;-75
2021/11/26 01:49:57;;;;;;;7.47;2.25;;;;;;;3.42;67.94;99809.59;6193068;23;20047;-82
2021/11/26 01:52:22;;;;;;;4.18;1.90;;;;;;;3.48;68.38;99803.25;6220230;23;20001;-80
2021/11/26 01:54:52;;;;;;;6.80;2.20;;;;;;;3.48;68.59;99797.84;6195127;23;20005;-81
2021/11/26 01:57:21;;;;;;;4.85;1.95;;;;;;;3.53;68.92;99789.03;6224173;23;20028;-82
2021/11/26 01:59:51;;;;;;;4.15;2.00;;;;;;;3.57;68.48;99780.19;6221813;23;20777;-81
2021/11/26 02:02:20;;;;;;;2.15;1.60;;;;;;;3.60;68.20;99778.91;6220757;23;20000;-80
2021/11/26 02:04:46;;;;;;;2.78;1.77;;;;;;;3.59;68.60;99778.09;6221317;23;20059;-83
2021/11/26 02:07:14;;;;;;;10.57;2.42;;;;;;;3.53;68.40;99754.69;6197764;23;20008;-82
2021/11/26 02:09:40;;;;;;;8.23;1.83;;;;;;;3.52;69.17;99765.75;6171296;23;20013;-82
2021/11/26 02:12:06;;;;;;;10.15;1.35;;;;;;;3.44;69.65;99756.91;6220967;23;20014;-80
2021/11/26 02:14:32;;;;;;;1.40;1.13;;;;;;;3.41;70.07;99751.19;6222231;23;20009;-80
2021/11/26 02:16:58;;;;;;;7.53;1.90;;;;;;;3.48;70.73;99749.19;6194273;23;20030;-78
2021/11/26 02:19:26;;;;;;;7.93;1.90;;;;;;;3.51;70.63;99737.88;6189966;23;20449;-79
2021/11/26 02:21:53;;;;;;;1.83;1.15;;;;;;;3.57;70.95;99725.31;6219181;23;20000;-78
2021/11/26 02:24:20;;;;;;;5.18;1.65;;;;;;;3.61;70.97;99721.88;6219366;23;20104;-79
2021/11/26 02:26:48;;;;;;;2.67;1.15;;;;;;;3.71;71.31;99721.28;6220903;23;20289;-77
2021/11/26 02:29:15;;;;;;;2.05;1.17;;;;;;;3.79;71.37;99717.41;6216707;23;20007;-78
2021/11/26 02:31:41;;;;;;;2.25;1.67;;;;;;;3.82;71.14;99708.81;6191260;23;20007;-80
2021/11/26 02:34:09;;;;;;;9.38;1.88;;;;;;;3.87;70.46;99687.28;6212988;23;20001;-76
2021/11/26 02:36:35;;;;;;;6.72;1.52;;;;;;;3.94;70.17;99685.25;6215457;23;20048;-73
2021/11/26 02:39:01;;;;;;;4.88;1.58;;;;;;;3.94;70.29;99682.56;6188454;23;20005;-73
2021/11/26 02:41:27;;;;;;;4.07;1.55;;;;;;;3.93;69.77;99667.38;6184776;23;20011;-73
2021/11/26 02:43:52;;;;;;;1.63;1.40;;;;;;;3.93;69.96;99658.41;6212961;23;20071;-73
2021/11/26 02:46:18;;;;;;;3.83;1.60;;;;;;;3.96;70.25;99663.38;6156155;23;20009;-73
2021/11/26 02:48:45;;;;;;;5.65;1.42;;;;;;;3.96;70.06;99658.78;6163151;23;20016;-73
2021/11/26 02:51:11;;;;;;;8.88;2.20;;;;;;;4.02;70.52;99648.88;6162078;23;20024;-73
2021/11/26 02:53:37;;;;;;;2.85;1.48;;;;;;;4.04;69.72;99632.41;6214577;23;20008;-73
2021/11/26 02:56:02;;;;;;;4.03;1.42;;;;;;;4.09;70.59;99624.38;6221538;23;20005;-72
2021/11/26 02:58:28;;;;;;;4.55;0.95;;;;;;;4.18;70.33;99614.81;6217789;23;20008;-71
2021/11/26 03:00:56;;;;;;;3.03;1.30;;;;;;;4.22;70.16;99602.44;6185084;23;20303;-74
2021/11/26 03:03:21;;;;;;;1.77;1.00;;;;;;;4.22;69.55;99597.03;6186624;23;20012;-77
2021/11/26 03:05:47;;;;;;;12.95;1.70;;;;;;;4.28;69.62;99585.22;6166652;23;20074;-74
2021/11/26 03:08:13;;;;;;;5.53;1.45;;;;;;;4.29;69.60;99586.03;6165570;23;20335;-75
2021/11/26 03:10:39;;;;;;;10.05;1.48;;;;;;;4.29;69.63;99575.19;6191049;23;20028;-75
2021/11/26 03:13:08;;;;;;;6.93;1.63;;;;;;;4.21;69.38;99575.63;6192512;23;20087;-76
2021/11/26 03:15:36;;;;;;;1.88;1.20;;;;;;;4.20;69.43;99566.66;6165742;23;20013;-75
2021/11/26 03:18:03;;;;;;;3.40;1.40;;;;;;;4.18;69.43;99557.97;6191187;23;20011;-76
2021/11/26 03:20:30;;;;;;;2.08;1.23;;;;;;;4.27;69.28;99552.97;6219620;23;20076;-75
2021/11/26 03:22:58;;;;;;;1.52;1.25;;;;;;;4.24;69.71;99546.16;6188197;23;20104;-75
2021/11/26 03:25:25;;;;;;;1.98;1.05;;;;;;;4.27;69.36;99539.44;6188775;23;20448;-73
2021/11/26 03:27:51;;;;;;;3.67;1.63;;;;;;;4.30;69.49;99533.53;6193338;23;20012;-75
2021/11/26 03:30:20;;;;;;;13.90;1.27;;;;;;;4.27;68.89;99507.78;6205258;23;19996;-75
2021/11/26 03:32:47;;;;;;;2.78;1.38;;;;;;;4.30;69.09;99507.28;6206336;23;20009;-75
2021/11/26 03:35:18;;;;;;;1.67;1.58;;;;;;;4.19;69.47;99486.53;6196768;23;20065;-75
2021/11/26 03:37:53;;;;;;;3.80;1.80;;;;;;;4.11;69.32;99474.25;6192001;23;20497;-75
2021/11/26 03:40:20;;;;;;;1.73;1.30;;;;;;;4.04;69.34;99449.22;6189589;23;20033;-76
2021/11/26 03:42:58;;;;;;;;;;;;;;;;;;;;;
2021/11/26 03:45:32;;;;;;;4.20;1.25;;;;;;;4.19;69.79;99462.16;6190191;23;20080;-76
2021/11/26 03:48:19;;;;;;;2.33;1.30;;;;;;;3.99;69.85;99420.22;6190789;23;20301;-77
2021/11/26 03:50:47;;;;;;;2.60;1.13;;;;;;;4.05;70.25;99420.31;6164521;23;20005;-74
2021/11/26 03:53:12;;;;;;;4.68;0.85;;;;;;;4.11;70.31;99411.19;6164423;23;20009;-74
2021/11/26 03:55:38;;;;;;;2.45;0.80;;;;;;;4.26;70.92;99421.41;6188458;23;20009;-75
2021/11/26 03:58:04;;;;;;;3.50;1.10;;;;;;;4.33;71.21;99406.63;6190282;23;20036;-74
2021/11/26 04:00:29;;;;;;;7.63;0.77;;;;;;;4.45;72.21;99414.63;6195627;23;20012;-74
2021/11/26 04:02:55;;;;;;;1.45;1.02;;;;;;;4.47;71.71;99387.34;6150265;23;20009;-75
2021/11/26 04:05:21;;;;;;;0.80;0.43;;;;;;;4.52;71.81;99379.28;6177737;23;20001;-73
2021/11/26 04:07:47;;;;;;;3.80;2.05;;;;;;;4.50;71.70;99360.56;6170354;23;20084;-73
2021/11/26 04:10:14;;;;;;;4.72;1.35;;;;;;;4.51;71.63;99350.56;6206198;23;20001;-74
2021/11/26 04:12:39;;;;;;;8.98;0.88;;;;;;;4.54;72.00;99333.78;6181849;23;19993;-74
2021/11/26 04:15:06;;;;;;;2.95;0.68;;;;;;;4.71;71.87;99345.38;6207554;23;20062;-74
2021/11/26 04:17:33;;;;;;;2.72;1.15;;;;;;;4.67;71.80;99325.31;6184603;23;20376;-74
2021/11/26 04:19:59;;;;;;;5.93;1.00;;;;;;;4.74;71.56;99322.38;6209005;23;20055;-75
2021/11/26 04:22:25;;;;;;;3.60;0.85;;;;;;;4.71;71.89;99307.44;6203523;22;20005;-72
2021/11/26 04:24:50;;;;;;;4.75;0.82;;;;;;;4.70;71.72;99313.97;6159984;23;20018;-73
2021/11/26 04:27:16;;;;;;;0.93;0.80;;;;;;;4.72;72.49;99290.13;6191371;23;20044;-74
2021/11/26 04:29:41;;;;;;;3.53;0.70;;;;;;;4.72;71.95;99289.34;6218041;23;20012;-74
2021/11/26 04:32:07;;;;;;;9.70;0.63;;;;;;;4.79;72.50;99280.97;6218461;23;20075;-74
2021/11/26 04:34:33;;;;;;;2.78;0.95;;;;;;;4.81;72.45;99268.81;6165730;23;20008;-73
2021/11/26 04:36:59;;;;;;;10.20;0.85;;;;;;;4.86;72.79;99266.19;6188980;23;20082;-73
2021/11/26 04:39:24;;;;;;;8.45;0.95;;;;;;;4.89;72.91;99254.00;6189230;23;20012;-74
2021/11/26 04:41:50;;;;;;;5.82;1.17;;;;;;;4.96;72.72;99235.63;6189223;23;20016;-74
2021/11/26 04:44:15;;;;;;;6.03;1.52;;;;;;;4.93;72.94;99228.03;6215860;23;20061;-75
2021/11/26 04:46:41;;;;;;;2.80;0.60;;;;;;;4.92;72.79;99203.91;6188927;23;20423;-75
2021/11/26 04:49:07;;;;;;;3.83;0.60;;;;;;;5.00;72.69;99223.22;6189248;23;20062;-74
2021/11/26 04:51:34;;;;;;;8.98;1.67;;;;;;;5.01;73.20;99203.19;6189271;23;20028;-73
2021/11/26 04:53:59;;;;;;;5.00;0.93;;;;;;;5.03;72.96;99190.19;6217060;23;20028;-73
2021/11/26 04:56:25;;;;;;;6.18;1.25;;;;;;;5.09;72.85;99187.53;6213884;23;20040;-73
2021/11/26 04:58:50;;;;;;;2.55;0.93;;;;;;;5.10;72.51;99194.59;6189622;23;20036;-73
2021/11/26 05:01:16;;;;;;;3.50;0.63;;;;;;;5.15;72.66;99170.22;6163029;23;20004;-72
2021/11/26 05:03:42;;;;;;;1.95;0.75;;;;;;;5.14;72.79;99168.56;6188687;23;20008;-74
2021/11/26 05:06:07;;;;;;;5.65;0.73;;;;;;;5.17;72.88;99140.94;6187539;23;20124;-73
2021/11/26 05:08:33;;;;;;;3.83;0.68;;;;;;;5.22;72.34;99149.13;6189500;23;20077;-74
2021/11/26 05:10:58;;;;;;;7.60;0.80;;;;;;;5.24;72.39;99141.53;6189078;23;20020;-74
2021/11/26 05:13:28;;;;;;;3.78;0.60;;;;;;;5.21;73.59;99139.34;6187966;23;20066;-73
2021/11/26 05:15:54;;;;;;;3.38;0.60;;;;;;;5.27;72.86;99119.34;6188743;23;20004;-74
2021/11/26 05:18:23;;;;;;;12.95;0.93;;;;;;;5.30;73.07;99134.25;6212310;23;19996;-73
2021/11/26 05:20:53;;;;;;;1.77;0.65;;;;;;;5.30;72.99;99109.84;6162504;23;20012;-75
2021/11/26 05:23:20;;;;;;;2.65;0.47;;;;;;;5.30;73.09;99080.88;6183729;23;20428;-74
2021/11/26 05:25:46;;;;;;;4.97;1.80;;;;;;;5.30;72.95;99074.59;6186309;23;20123;-74
2021/11/26 05:28:12;;;;;;;1.20;0.50;;;;;;;5.27;73.08;99072.44;6181912;23;20515;-74
2021/11/26 05:30:38;;;;;;;3.58;0.65;;;;;;;5.29;73.96;99073.00;6160166;23;20009;-73
2021/11/26 05:33:03;;;;;;;3.55;0.75;;;;;;;5.23;74.24;99043.16;6186993;23;20004;-74
2021/11/26 05:35:29;;;;;;;5.57;0.60;;;;;;;5.27;73.90;99054.28;6183469;23;20009;-73
2021/11/26 05:37:56;;;;;;;4.63;0.85;;;;;;;5.31;75.07;99052.66;6180724;23;20052;-72
2021/11/26 05:40:21;;;;;;;2.28;0.50;;;;;;;5.34;74.42;99052.13;6184496;23;20377;-72
2021/11/26 05:42:53;;;;;;;5.00;0.65;;;;;;;5.34;74.64;99038.56;6187884;23;20008;-75
2021/11/26 05:45:19;;;;;;;6.75;0.80;;;;;;;5.42;75.32;99035.34;6193985;23;20017;-76
2021/11/26 05:48:02;;;;;;;6.00;0.98;;;;;;;5.31;75.38;99017.41;6198725;23;20009;-75
2021/11/26 05:50:30;;;;;;;0.90;0.70;;;;;;;5.40;75.15;99026.69;6193848;23;20451;-75
2021/11/26 05:52:58;;;;;;;2.40;0.40;;;;;;;5.49;75.52;99035.13;6137643;23;20060;-75
2021/11/26 05:55:38;;;;;;;;;;;;;;;;;;;;;
2021/11/26 05:58:04;;;;;;;6.63;0.77;;;;;;;5.49;75.42;99029.69;6187038;23;20080;-75
2021/11/26 06:00:31;;;;;;;2.15;0.68;;;;;;;5.44;75.00;99004.47;6186504;23;20014;-74
2021/11/26 06:02:58;;;;;;;2.58;1.02;;;;;;;5.47;75.20;99009.34;6188494;23;20320;-75
2021/11/26 06:05:24;;;;;;;3.17;0.70;;;;;;;5.50;75.62;99011.53;6186531;23;20437;-76
2021/11/26 06:07:52;;;;;;;7.72;0.57;;;;;;;5.62;75.33;98995.81;6186154;23;20087;-76
2021/11/26 06:10:19;;;;;;;7.38;0.57;;;;;;;5.69;75.05;98993.66;6186564;23;20016;-76
2021/11/26 06:12:47;;;;;;;5.22;1.58;;;;;;;5.69;75.07;98979.28;6185841;23;20428;-75
2021/11/26 06:15:15;;;;;;;6.85;1.35;;;;;;;5.67;75.38;98966.00;6187421;23;20012;-75
2021/11/26 06:17:42;;;;;;;2.75;0.77;;;;;;;5.79;75.48;98970.34;6187556;23;20320;-75
2021/11/26 06:20:09;;;;;;;4.38;0.82;;;;;;;5.74;75.65;98954.91;6179190;23;20482;-76
2021/11/26 06:22:41;;;;;;;5.18;0.50;;;;;;;5.73;75.58;98937.78;6165543;23;20009;-77
2021/11/26 06:25:08;;;;;;;8.73;0.77;;;;;;;5.79;76.08;98945.94;6185637;23;20076;-76
2021/11/26 06:27:36;;;;;;;7.05;1.05;;;;;;;5.73;76.00;98926.13;6187656;23;20059;-75
2021/11/26 06:30:04;;;;;;;2.72;0.38;;;;;;;5.71;76.36;98906.59;6161867;23;20412;-78
2021/11/26 06:32:32;;;;;;;9.20;0.60;;;;;;;5.70;76.73;98899.56;6188929;23;19996;-79
2021/11/26 06:35:00;;;;;;;4.35;0.50;;;;;;;5.78;76.64;98890.84;6200784;23;20028;-75
2021/11/26 06:37:25;;;;;;;8.95;0.98;;;;;;;5.81;77.43;98895.78;6164823;23;20001;-76
2021/11/26 06:39:54;;;;;;;8.48;1.55;;;;;;;5.84;77.40;98894.38;6187744;23;20019;-76
2021/11/26 06:42:19;;;;;;;14.32;1.00;;;;;;;5.98;77.16;98878.41;6214162;23;20000;-76
2021/11/26 06:44:50;;;;;;;2.80;0.55;;;;;;;5.97;76.23;98866.72;6215170;23;20023;-75
2021/11/26 06:47:15;;;;;;;10.57;0.60;;;;;;;6.01;76.96;98851.53;6189386;23;20427;-76
2021/11/26 06:49:40;;;;;;;3.85;0.77;;;;;;;6.03;77.73;98849.38;6215991;23;20001;-77
2021/11/26 06:52:06;;;;;;;3.47;0.68;;;;;;;5.97;77.79;98828.75;6190104;23;20455;-79
2021/11/26 06:54:32;;;;;;;4.47;1.00;;;;;;;6.11;77.63;98829.78;6188562;23;20592;-76
2021/11/26 06:57:00;;;;;;;2.53;0.30;;;;;;;6.23;77.16;98831.41;6164755;23;20005;-76
2021/11/26 06:59:26;;;;;;;7.45;0.85;;;;;;;6.26;76.54;98819.97;6189240;23;20339;-77
2021/11/26 07:01:54;;;;;;;3.05;0.50;;;;;;;6.29;77.18;98819.44;6168877;23;20013;-76
2021/11/26 07:04:20;;;;;;;1.20;0.25;;;;;;;6.39;77.00;98808.53;6163978;23;20051;-75
2021/11/26 07:06:47;;;;;;;2.97;0.50;;;;;;;6.50;76.86;98811.19;6186642;23;20001;-76
2021/11/26 07:09:13;;;;;;;0.77;0.30;;;;;;;6.55;77.14;98822.06;6180622;23;20028;-76
2021/11/26 07:11:48;;;;;;;;;;;;;;;;;;;;;
2021/11/26 07:14:28;;;;;;;1.38;0.60;;;;;;;6.44;76.94;98784.09;6208154;23;20079;-77
2021/11/26 07:16:53;;;;;;;2.63;0.57;;;;;;;6.49;76.96;98774.28;6181280;23;20059;-76
2021/11/26 07:19:37;;;;;;;2.80;0.40;;;;;;;6.59;77.36;98785.09;6207725;23;20012;-75
2021/11/26 07:22:10;;;;;;;5.53;0.70;;;;;;;6.52;77.17;98773.72;6180732;23;20064;-73
2021/11/26 07:24:38;;;;;;;5.07;0.47;;;;;;;6.55;77.25;98767.72;6213366;23;20074;-77
2021/11/26 07:27:12;;;;;;;3.40;0.50;;;;;;;6.58;77.65;98769.88;6161962;23;20020;-76
2021/11/26 07:29:38;;;;;;;1.02;0.30;;;;;;;6.63;77.21;98769.88;6187450;23;20013;-77
2021/11/26 07:32:07;;;;;;;3.25;0.32;;;;;;;6.56;77.93;98756.59;6186837;23;20015;-76
2021/11/26 07:34:33;;;;;;;1.67;0.45;;;;;;;6.57;77.74;98739.22;6159292;23;20398;-77
2021/11/26 07:36:59;;;;;;;0.70;0.30;;;;;;;6.63;78.09;98745.44;6188442;23;20008;-78
2021/11/26 07:39:32;;;;;;;5.82;0.65;;;;;;;6.57;77.99;98722.91;6184609;23;20062;-77
2021/11/26 07:42:03;;;;;;;3.10;0.40;;;;;;;6.66;78.61;98736.72;6215776;23;20005;-77
2021/11/26 07:44:30;;;;;;;9.68;0.55;;;;;;;6.63;78.62;98712.84;6186527;23;20087;-77
2021/11/26 07:46:56;;;;;;;2.72;0.55;;;;;;;6.61;78.56;98701.41;6163485;23;20009;-76
2021/11/26 07:49:25;;;;;;;3.50;0.60;;;;;;;6.64;78.39;98706.28;6188510;23;20009;-76
2021/11/26 07:51:51;;;;;;;1.85;0.30;;;;;;;6.68;78.76;98701.13;6189250;23;20001;-74
2021/11/26 07:54:19;;;;;;;1.92;0.30;;;;;;;6.73;78.14;98704.59;6214050;23;20005;-75
2021/11/26 07:56:47;;;;;;;1.00;0.50;;;;;;;6.76;78.65;98706.75;6214732;23;20063;-74
2021/11/26 07:59:13;;;;;;;2.75;0.75;;;;;;;6.75;78.34;98691.53;6214330;23;20009;-76
2021/11/26 08:01:41;;;;;;;0.73;0.22;;;;;;;6.79;78.67;98680.91;6185975;23;20015;-75
2021/11/26 08:04:06;;;;;;;3.33;0.40;;;;;;;6.81;78.80;98674.09;6186422;23;20013;-74
2021/11/26 08:06:34;;;;;;;4.03;0.40;;;;;;;6.96;78.64;98689.47;6215493;23;20016;-74
2021/11/26 08:08:59;;;;;;;1.77;0.50;;;;;;;7.03;78.62;98683.72;6202520;23;20004;-76
2021/11/26 08:11:28;;;;;;;3.00;0.45;;;;;;;7.04;77.99;98666.31;6234094;23;20000;-75
2021/11/26 08:14:01;;;;;;;6.00;0.50;;;;;;;7.06;78.26;98655.97;6208055;23;20016;-74
2021/11/26 08:16:27;;;;;;;2.17;0.35;;;;;;;7.16;77.84;98647.72;6166488;23;20068;-76
2021/11/26 08:18:55;;;;;;;3.20;0.38;;;;;;;7.19;78.05;98645.53;6188681;23;20059;-72
2021/11/26 08:21:21;;;;;;;0.98;0.25;;;;;;;7.28;77.37;98649.22;6189091;23;20336;-74
2021/11/26 08:23:46;;;;;;;2.42;0.47;;;;;;;7.34;77.72;98645.34;6161116;23;20028;-76
2021/11/26 08:26:12;;;;;;;0.28;0.13;;;;;;;7.33;77.20;98616.56;6183417;23;20016;-75
2021/11/26 08:28:37;;;;;;;1.38;0.25;;;;;;;7.46;76.90;98631.34;6186205;23;20483;-73
2021/11/26 08:31:03;;;;;;;3.70;1.33;;;;;;;7.59;76.92;98632.56;6181494;23;20059;-75
2021/11/26 08:33:29;;;;;;;3.03;0.73;;;;;;;7.59;77.61;98627.94;6182876;23;20451;-75
2021/11/26 08:35:54;;;;;;;0.73;0.45;;;;;;;7.58;77.30;98623.63;6186129;23;20013;-75
2021/11/26 08:38:20;;;;;;;2.95;0.50;;;;;;;7.61;77.49;98614.06;6183622;23;20356;-75
2021/11/26 08:40:46;;;;;;;3.97;0.60;;;;;;;7.60;77.16;98607.00;6183844;23;20011;-75
2021/11/26 08:43:14;;;;;;;1.52;0.20;;;;;;;7.56;77.28;98593.16;6185789;23;20005;-75
2021/11/26 08:45:40;;;;;;;5.13;0.60;;;;;;;7.60;77.28;98591.47;6185756;23;20467;-75
2021/11/26 08:48:13;;;;;;;1.80;0.40;;;;;;;7.56;77.64;98573.31;6186114;23;20041;-77
2021/11/26 08:50:41;;;;;;;1.77;0.45;;;;;;;7.67;77.72;98591.13;6187522;23;20012;-75
2021/11/26 08:53:13;;;;;;;0.57;0.50;;;;;;;7.60;77.07;98568.91;6185610;23;20450;-78
2021/11/26 08:55:46;;;;;;;5.82;0.73;;;;;;;7.59;78.41;98564.56;6177639;23;20415;-75
2021/11/26 08:58:13;;;;;;;6.20;0.90;;;;;;;7.61;78.34;98559.66;6183452;23;20363;-77
2021/11/26 09:00:40;;;;;;;1.75;0.52;;;;;;;7.65;78.38;98550.63;6162019;23;20084;-76
2021/11/26 09:03:08;;;;;;;5.45;0.50;;;;;;;7.85;78.24;98552.22;6190008;23;20005;-78
2021/11/26 09:05:34;;;;;;;3.50;0.52;;;;;;;7.85;78.63;98541.34;6189184;23;20020;-77
2021/11/26 09:08:02;;;;;;;7.47;1.33;;;;;;;7.95;78.70;98547.75;6164436;23;20067;-77
2021/11/26 09:10:35;;;;;;;3.40;0.70;;;;;;;7.97;78.84;98534.66;6188787;23;20000;-75
2021/11/26 09:13:02;;;;;;;4.55;1.00;;;;;;;8.00;77.96;98540.34;6185535;23;20056;-74
2021/11/26 09:15:32;;;;;;;6.60;0.88;;;;;;;7.95;79.29;98509.66;6186817;23;20016;-76
2021/11/26 09:18:00;;;;;;;9.40;0.65;;;;;;;8.07;78.85;98518.16;6185251;23;20035;-74
2021/11/26 09:20:31;;;;;;;8.15;1.10;;;;;;;8.20;78.49;98524.78;6188280;23;20117;-75
2021/11/26 09:22:57;;;;;;;9.55;0.70;;;;;;;8.20;77.69;98503.78;6192166;23;20370;-77
2021/11/26 09:25:25;;;;;;;3.22;1.15;;;;;;;8.17;77.59;98514.50;6191374;23;20032;-75
2021/11/26 09:27:51;;;;;;;4.03;0.95;;;;;;;8.04;77.82;98513.31;6184929;23;20008;-75
2021/11/26 09:30:19;;;;;;;9.75;0.88;;;;;;;8.18;78.84;98500.56;6162783;23;20338;-73
2021/11/26 09:32:51;;;;;;;6.13;0.68;;;;;;;8.73;78.69;98497.22;6212101;23;20051;-75
2021/11/26 09:35:16;;;;;;;5.15;1.10;;;;;;;9.14;76.01;98484.72;6187834;23;20005;-74
2021/11/26 09:37:47;;;;;;;9.27;1.60;;;;;;;9.67;74.12;98483.31;6188368;23;20596;-74
2021/11/26 09:40:22;;;;;;;7.60;0.93;;;;;;;9.61;73.15;98488.06;6187961;23;20375;-75
2021/11/26 09:42:48;;;;;;;3.80;0.77;;;;;;;9.25;73.72;98472.47;6233219;23;19992;-74
2021/11/26 09:45:21;;;;;;;12.65;2.15;;;;;;;9.21;74.09;98476.13;6208643;23;20378;-76
2021/11/26 09:47:55;;;;;;;13.13;1.88;;;;;;;9.61;75.13;98477.16;6198501;23;20012;-74
2021/11/26 09:50:25;;;;;;;2.95;1.05;;;;;;;10.39;73.12;98469.91;6189278;23;20012;-75
2021/11/26 09:52:52;;;;;;;1.40;0.73;;;;;;;11.37;70.20;98472.69;6196855;23;20073;-73
2021/11/26 09:55:19;;;;;;;7.68;1.50;;;;;;;12.10;66.53;98469.38;6193041;23;20013;-76
2021/11/26 09:57:46;;;;;;;7.57;1.27;;;;;;;12.21;65.27;98465.19;6166837;23;20011;-76
2021/11/26 10:00:18;;;;;;;4.13;1.05;;;;;;;12.08;64.92;98457.94;6198271;23;20005;-76
2021/11/26 10:02:51;;;;;;;6.05;0.85;;;;;;;11.96;65.22;98453.09;6226269;23;20027;-75
2021/11/26 10:05:17;;;;;;;3.03;0.70;;;;;;;12.46;65.31;98443.53;6191276;23;20075;-74
2021/11/26 10:07:54;;;;;;;3.42;1.48;;;;;;;12.88;62.76;98440.97;6171182;23;20012;-76
2021/11/26 10:10:25;;;;;;;4.45;1.10;;;;;;;12.70;62.01;98451.19;6169990;23;20076;-76
2021/11/26 10:13:08;;;;;;;2.55;0.82;;;;;;;12.49;62.40;98434.66;6223391;23;20012;-76
2021/11/26 10:15:53;;;;;;;1.65;0.52;;;;;;;12.31;61.00;98431.97;6196453;23;20450;-74
2021/11/26 10:18:22;;;;;;;5.03;0.50;;;;;;;12.11;61.97;98446.34;6196233;23;20009;-75
2021/11/26 10:21:04;;;;;;;3.92;0.70;;;;;;;11.68;64.37;98461.59;6189710;23;20004;-74
2021/11/26 10:23:34;;;;;;;5.68;0.40;;;;;;;11.23;66.58;98446.28;6207838;23;20012;-77
2021/11/26 10:26:22;;;;;;;0.20;0.10;;;;;;;10.78;67.66;98424.59;6213821;23;20327;-77
2021/11/26 10:28:51;;;;;;;0.80;0.30;;;;;;;10.33;69.42;98413.75;6186554;23;20036;-78
2021/11/26 10:31:31;;;;;;;9.82;0.47;;;;;;;9.90;70.29;98396.78;6212311;23;20086;-78
2021/11/26 10:34:00;;;;;;;1.58;0.40;;;;;;;9.68;70.33;98418.59;6214346;23;20348;-78
2021/11/26 10:36:27;;;;;;;5.80;0.45;;;;;;;9.36;69.39;98393.13;6184543;23;20370;-77
2021/11/26 10:38:57;;;;;;;0.30;0.20;;;;;;;9.24;67.85;98408.16;6215774;23;20001;-75
2021/11/26 10:41:41;;;;;;;;;;;;;;;;;;;;;
2021/11/26 10:44:09;;;;;;;0.50;0.30;;;;;;;9.12;66.32;98380.56;6211768;23;20083;-76
2021/11/26 10:46:49;;;;;;;0.47;0.10;;;;;;;9.21;66.26;98386.13;6213570;23;20012;-75
2021/11/26 10:49:39;;;;;;;0.20;0.20;;;;;;;9.13;65.97;98374.03;6184366;23;20008;-77
2021/11/26 11:00:12;;;;;;;0.82;0.10;;;;;;;12.34;58.11;98351.81;6187105;23;20070;-74
2021/11/26 11:02:43;;;;;;;0.10;0.05;;;;;;;13.53;55.05;98350.16;6209108;23;20005;-76
2021/11/26 11:05:30;;;;;;;0.10;0.10;;;;;;;14.53;52.23;98341.81;6211255;23;20008;-75
2021/11/26 11:08:00;;;;;;;0.20;0.10;;;;;;;15.19;50.40;98339.97;6208746;23;20036;-75
2021/11/26 11:10:38;;;;;;;0.47;0.20;;;;;;;16.11;50.23;98329.16;6213991;23;20000;-74
2021/11/26 11:13:30;;;;;;;1.25;0.10;;;;;;;17.39;46.52;98309.66;6217772;23;20004;-74
2021/11/26 11:16:09;;;;;;;0.98;0.38;;;;;;;18.60;46.65;98329.69;6213151;23;20017;-73
2021/11/26 11:18:38;;;;;;;0.20;0.08;;;;;;;19.52;42.07;98319.50;6212605;23;20000;-74
2021/11/26 11:21:25;;;;;;;0.85;0.13;;;;;;;19.80;41.02;98326.59;6187778;23;20016;-75
2021/11/26 11:23:50;;;;;;;0.52;0.25;;;;;;;18.74;41.32;98306.94;6212286;23;20017;-74
2021/11/26 11:26:16;;;;;;;1.10;0.40;;;;;;;17.53;43.39;98323.75;6212612;23;20055;-75
2021/11/26 11:28:45;;;;;;;0.75;0.20;;;;;;;16.52;46.00;98299.44;6184553;23;20040;-75
2021/11/26 11:31:10;;;;;;;0.95;0.20;;;;;;;15.87;47.62;98297.81;6214776;23;20044;-75
2021/11/26 11:33:39;;;;;;;8.55;0.50;;;;;;;15.27;48.91;98296.91;6215423;23;20009;-73
2021/11/26 11:36:11;;;;;;;0.63;0.30;;;;;;;14.74;50.02;98275.69;6212780;23;20416;-76
2021/11/26 11:38:38;;;;;;;0.30;0.20;;;;;;;14.30;51.75;98280.97;6188852;23;20379;-76
2021/11/26 11:41:07;;;;;;;0.88;0.60;;;;;;;14.06;51.90;98276.25;6187258;23;20012;-76
2021/11/26 11:43:44;;;;;;;0.30;0.20;;;;;;;14.07;53.00;98264.13;6189920;23;20004;-76
2021/11/26 11:46:12;;;;;;;1.80;0.30;;;;;;;14.05;51.93;98267.22;6192099;23;20011;-75
2021/11/26 11:49:00;;;;;;;0.75;0.20;;;;;;;13.96;51.94;98248.06;6188932;23;20005;-76
2021/11/26 11:51:35;;;;;;;2.55;0.63;;;;;;;14.57;50.96;98254.75;6200821;23;20011;-77
2021/11/26 11:54:10;;;;;;;0.77;0.38;;;;;;;14.70;48.02;98236.28;6167141;23;20008;-74
2021/11/26 11:56:50;;;;;;;2.13;0.30;;;;;;;14.81;48.67;98242.13;6217229;23;20005;-75
2021/11/26 11:59:36;;;;;;;1.20;0.30;;;;;;;15.63;46.71;98237.31;6191447;23;20004;-78
2021/11/26 12:02:05;;;;;;;5.65;0.50;;;;;;;16.44;43.81;98250.78;6197930;23;20016;-75